Time;durP1;ratioP1;P1;durP2;ratioP2;P2;SDS_P1;SDS_P2;PMS_P1;PMS_P2;Temp;Humidity;BMP_temperature;BMP_pressure;BME280_temperature;BME280_humidity;BME280_pressure;Samples;Min_cycle;Max_cycle;Signal;HPM_P1;HPM_P2
2021/09/20 00:01:58;;;;;;;;;;;23.80;50.20;;;;;;1544395;76;759;-68
2021/09/20 00:04:00;;;;;;;;;;;23.80;50.20;;;;;;1555224;76;776;-68
2021/09/20 00:06:02;;;;;;;;;;;23.80;50.20;;;;;;1544645;76;705;-68
2021/09/20 00:08:04;;;;;;;;;;;23.70;50.20;;;;;;1540501;76;1945;-69
2021/09/20 00:10:06;;;;;;;;;;;23.80;50.20;;;;;;1541552;76;1319;-68
2021/09/20 00:12:08;;;;;;;;;;;23.70;50.20;;;;;;1540354;76;717;-68
2021/09/20 00:14:10;;;;;;;;;;;23.80;50.20;;;;;;1541950;76;953;-69
2021/09/20 00:16:12;;;;;;;;;;;23.80;50.20;;;;;;1545950;76;609;-69
2021/09/20 00:18:14;;;;;;;;;;;23.80;50.10;;;;;;1542503;76;736;-69
2021/09/20 00:20:16;;;;;;;;;;;23.80;50.10;;;;;;1542386;76;1143;-67
2021/09/20 00:22:18;;;;;;;;;;;23.80;50.10;;;;;;1553119;76;794;-68
2021/09/20 00:24:20;;;;;;;;;;;23.80;50.10;;;;;;1544059;76;682;-69
2021/09/20 00:26:21;;;;;;;;;;;23.80;50.10;;;;;;1541703;76;1939;-71
2021/09/20 00:28:23;;;;;;;;;;;23.90;50.20;;;;;;1541632;76;786;-69
2021/09/20 00:30:25;;;;;;;;;;;23.80;50.10;;;;;;1540231;76;1178;-68
2021/09/20 00:32:27;;;;;;;;;;;23.80;50.00;;;;;;1544617;76;749;-69
2021/09/20 00:34:29;;;;;;;;;;;23.90;50.20;;;;;;1541626;76;711;-68
2021/09/20 00:36:31;;;;;;;;;;;23.90;50.20;;;;;;1539044;76;721;-69
2021/09/20 00:38:33;;;;;;;;;;;23.90;50.20;;;;;;1546360;76;790;-69
2021/09/20 00:40:35;;;;;;;;;;;23.90;50.10;;;;;;1544379;73;3104;-67
2021/09/20 00:42:36;;;;;;;;;;;23.90;50.20;;;;;;1556840;76;797;-67
2021/09/20 00:44:38;;;;;;;;;;;23.80;50.00;;;;;;1556092;76;786;-69
2021/09/20 00:46:40;;;;;;;;;;;23.90;50.10;;;;;;1551052;75;1950;-68
2021/09/20 00:48:42;;;;;;;;;;;23.90;50.10;;;;;;1550086;76;767;-66
2021/09/20 00:50:44;;;;;;;;;;;23.90;50.10;;;;;;1542673;76;1193;-69
2021/09/20 00:52:46;;;;;;;;;;;23.80;49.90;;;;;;1536974;75;773;-67
2021/09/20 00:54:50;;;;;;;;;;;23.90;50.00;;;;;;1539015;77;780;-67
2021/09/20 00:56:51;;;;;;;;;;;23.90;50.00;;;;;;1546769;75;2039;-66
2021/09/20 00:58:53;;;;;;;;;;;23.90;50.00;;;;;;1535319;76;733;-66
2021/09/20 01:00:55;;;;;;;;;;;23.90;50.00;;;;;;1540164;77;1132;-67
2021/09/20 01:02:57;;;;;;;;;;;23.90;50.00;;;;;;1538732;77;711;-66
2021/09/20 01:04:59;;;;;;;;;;;23.90;50.00;;;;;;1542000;77;659;-66
2021/09/20 01:07:01;;;;;;;;;;;23.90;50.00;;;;;;1536829;77;1943;-67
2021/09/20 01:09:03;;;;;;;;;;;23.90;50.00;;;;;;1538906;77;770;-66
2021/09/20 01:11:05;;;;;;;;;;;23.90;50.00;;;;;;1540740;77;1098;-66
2021/09/20 01:13:06;;;;;;;;;;;23.90;49.90;;;;;;1539507;77;749;-65
2021/09/20 01:15:08;;;;;;;;;;;23.90;50.00;;;;;;1541780;77;800;-65
2021/09/20 01:17:10;;;;;;;;;;;23.90;49.90;;;;;;1536489;75;688;-66
2021/09/20 01:19:12;;;;;;;;;;;23.90;49.90;;;;;;1533679;77;1125;-67
2021/09/20 01:21:15;;;;;;;;;;;23.90;49.90;;;;;;1547509;75;672;-68
2021/09/20 01:23:17;;;;;;;;;;;23.90;49.80;;;;;;1542306;77;757;-68
2021/09/20 01:25:19;;;;;;;;;;;23.90;49.70;;;;;;1543564;77;819;-68
2021/09/20 01:27:21;;;;;;;;;;;23.90;49.70;;;;;;1539939;77;1934;-68
2021/09/20 01:29:23;;;;;;;;;;;23.90;49.70;;;;;;1544159;75;1163;-67
2021/09/20 01:31:25;;;;;;;;;;;24.00;49.70;;;;;;1533058;77;790;-68
2021/09/20 01:33:27;;;;;;;;;;;24.00;49.60;;;;;;1540584;77;916;-67
2021/09/20 01:35:29;;;;;;;;;;;24.00;49.60;;;;;;1538365;77;711;-68
2021/09/20 01:37:31;;;;;;;;;;;23.90;49.60;;;;;;1536458;77;683;-69
2021/09/20 01:39:33;;;;;;;;;;;23.90;49.70;;;;;;1545034;75;1118;-69
2021/09/20 01:41:35;;;;;;;;;;;23.90;49.70;;;;;;1536482;77;798;-68
2021/09/20 01:43:37;;;;;;;;;;;23.90;49.70;;;;;;1541136;77;745;-67
2021/09/20 01:45:39;;;;;;;;;;;23.80;49.60;;;;;;1539547;77;804;-67
2021/09/20 01:47:41;;;;;;;;;;;23.90;49.70;;;;;;1539693;77;1948;-68
2021/09/20 01:49:43;;;;;;;;;;;23.90;49.70;;;;;;1539290;77;1162;-67
2021/09/20 01:51:45;;;;;;;;;;;23.90;49.70;;;;;;1544125;77;730;-66
2021/09/20 01:53:47;;;;;;;;;;;23.90;49.70;;;;;;1547609;77;730;-67
2021/09/20 01:55:49;;;;;;;;;;;23.90;49.70;;;;;;1542988;77;736;-67
2021/09/20 01:57:51;;;;;;;;;;;23.90;49.80;;;;;;1539005;77;743;-68
2021/09/20 01:59:52;;;;;;;;;;;23.90;49.70;;;;;;1541086;77;1153;-67
2021/09/20 02:01:54;;;;;;;;;;;23.90;49.70;;;;;;1540372;75;785;-68
2021/09/20 02:03:56;;;;;;;;;;;24.00;49.70;;;;;;1544142;77;736;-67
2021/09/20 02:05:58;;;;;;;;;;;23.90;49.60;;;;;;1539959;77;733;-66
2021/09/20 02:08:00;;;;;;;;;;;23.90;49.70;;;;;;1539981;77;1956;-68
2021/09/20 02:10:02;;;;;;;;;;;23.90;49.70;;;;;;1537304;77;1225;-66
2021/09/20 02:12:04;;;;;;;;;;;23.90;49.70;;;;;;1537929;77;740;-67
2021/09/20 02:14:06;;;;;;;;;;;23.90;49.70;;;;;;1542934;77;730;-64
2021/09/20 02:16:08;;;;;;;;;;;23.90;49.70;;;;;;1541836;77;702;-66
2021/09/20 02:18:10;;;;;;;;;;;23.90;49.70;;;;;;1543804;77;733;-67
2021/09/20 02:20:12;;;;;;;;;;;23.90;49.80;;;;;;1540451;77;1143;-67
2021/09/20 02:22:14;;;;;;;;;;;23.90;49.80;;;;;;1536762;77;777;-67
2021/09/20 02:24:16;;;;;;;;;;;23.80;49.70;;;;;;1537749;77;748;-67
2021/09/20 02:26:17;;;;;;;;;;;23.90;49.80;;;;;;1537475;77;758;-65
2021/09/20 02:28:19;;;;;;;;;;;23.90;49.70;;;;;;1541526;77;1940;-64
2021/09/20 02:30:21;;;;;;;;;;;23.90;49.70;;;;;;1540581;77;1169;-65
2021/09/20 02:32:23;;;;;;;;;;;23.90;49.70;;;;;;1540087;77;783;-66
2021/09/20 02:34:25;;;;;;;;;;;23.90;49.80;;;;;;1540045;77;800;-66
2021/09/20 02:36:27;;;;;;;;;;;23.90;49.90;;;;;;1533966;77;886;-67
2021/09/20 02:38:29;;;;;;;;;;;23.90;49.80;;;;;;1542866;77;807;-67
2021/09/20 02:40:31;;;;;;;;;;;23.80;49.80;;;;;;1531975;77;1147;-67
2021/09/20 02:42:33;;;;;;;;;;;23.80;49.80;;;;;;1539771;77;830;-68
2021/09/20 02:44:34;;;;;;;;;;;23.80;49.90;;;;;;1543123;77;733;-65
2021/09/20 02:46:36;;;;;;;;;;;23.70;49.90;;;;;;1543223;77;803;-67
2021/09/20 02:48:38;;;;;;;;;;;23.80;49.90;;;;;;1542261;77;1955;-67
2021/09/20 02:50:40;;;;;;;;;;;23.80;50.00;;;;;;1544363;77;1140;-66
2021/09/20 02:52:42;;;;;;;;;;;23.80;50.00;;;;;;1535285;77;770;-68
2021/09/20 02:54:44;;;;;;;;;;;23.80;50.00;;;;;;1524175;77;761;-68
2021/09/20 02:56:46;;;;;;;;;;;23.80;50.00;;;;;;1532735;77;778;-69
2021/09/20 02:58:48;;;;;;;;;;;23.80;50.00;;;;;;1528949;77;807;-69
2021/09/20 03:00:49;;;;;;;;;;;23.70;50.00;;;;;;1539111;75;1111;-66
2021/09/20 03:02:51;;;;;;;;;;;23.70;50.00;;;;;;1521989;75;770;-66
2021/09/20 03:04:53;;;;;;;;;;;23.70;50.00;;;;;;1523180;77;764;-67
2021/09/20 03:06:55;;;;;;;;;;;23.70;50.10;;;;;;1526897;77;795;-66
2021/09/20 03:08:57;;;;;;;;;;;23.80;50.10;;;;;;1524182;77;1945;-67
2021/09/20 03:10:59;;;;;;;;;;;23.80;50.10;;;;;;1530898;75;1143;-67
2021/09/20 03:13:01;;;;;;;;;;;23.80;50.10;;;;;;1538109;77;683;-68
2021/09/20 03:15:03;;;;;;;;;;;23.70;50.10;;;;;;1522628;77;775;-65
2021/09/20 03:17:05;;;;;;;;;;;23.70;50.20;;;;;;1527925;77;774;-68
2021/09/20 03:19:07;;;;;;;;;;;23.70;50.10;;;;;;1526850;77;747;-69
2021/09/20 03:21:09;;;;;;;;;;;23.80;50.20;;;;;;1539878;77;1135;-66
2021/09/20 03:23:11;;;;;;;;;;;23.70;50.20;;;;;;1538225;77;809;-64
2021/09/20 03:25:12;;;;;;;;;;;23.70;50.30;;;;;;1542911;77;781;-64
2021/09/20 03:27:14;;;;;;;;;;;23.70;50.20;;;;;;1531146;77;801;-64
2021/09/20 03:29:16;;;;;;;;;;;23.70;50.30;;;;;;1529502;77;1944;-64
2021/09/20 03:31:18;;;;;;;;;;;23.70;50.20;;;;;;1527115;77;714;-64
2021/09/20 03:33:20;;;;;;;;;;;23.70;50.30;;;;;;1535062;77;694;-66
2021/09/20 03:35:22;;;;;;;;;;;23.80;50.30;;;;;;1534900;77;698;-68
2021/09/20 03:37:24;;;;;;;;;;;23.70;50.30;;;;;;1535429;77;704;-65
2021/09/20 03:39:26;;;;;;;;;;;23.70;50.30;;;;;;1535341;76;1127;-65
2021/09/20 03:41:27;;;;;;;;;;;23.70;50.40;;;;;;1539175;77;797;-66
2021/09/20 03:43:29;;;;;;;;;;;23.60;50.20;;;;;;1539566;77;685;-65
2021/09/20 03:45:31;;;;;;;;;;;23.70;50.30;;;;;;1527611;77;712;-65
2021/09/20 03:47:33;;;;;;;;;;;23.70;50.30;;;;;;1526880;77;1936;-67
2021/09/20 03:49:35;;;;;;;;;;;23.70;50.30;;;;;;1522695;77;1144;-68
2021/09/20 03:51:37;;;;;;;;;;;23.70;50.40;;;;;;1522725;77;669;-68
2021/09/20 03:53:39;;;;;;;;;;;23.70;50.40;;;;;;1529828;77;676;-66
2021/09/20 03:55:40;;;;;;;;;;;23.70;50.30;;;;;;1526716;77;706;-67
2021/09/20 03:57:42;;;;;;;;;;;23.60;50.20;;;;;;1526670;75;735;-66
2021/09/20 03:59:44;;;;;;;;;;;23.70;50.30;;;;;;1523895;77;1162;-67
2021/09/20 04:01:46;;;;;;;;;;;23.70;50.30;;;;;;1528842;77;768;-68
2021/09/20 04:03:48;;;;;;;;;;;23.70;50.40;;;;;;1523270;77;738;-66
2021/09/20 04:05:50;;;;;;;;;;;23.60;50.20;;;;;;1522437;77;712;-67
2021/09/20 04:07:52;;;;;;;;;;;23.70;50.40;;;;;;1525935;77;1929;-68
2021/09/20 04:09:54;;;;;;;;;;;23.60;50.20;;;;;;1527374;77;1131;-65
2021/09/20 04:11:55;;;;;;;;;;;23.70;50.30;;;;;;1523006;77;769;-65
2021/09/20 04:13:57;;;;;;;;;;;23.60;50.20;;;;;;1523980;77;685;-66
2021/09/20 04:15:59;;;;;;;;;;;23.60;50.20;;;;;;1527067;77;739;-65
2021/09/20 04:18:01;;;;;;;;;;;23.70;50.40;;;;;;1526501;77;792;-67
2021/09/20 04:20:04;;;;;;;;;;;23.60;50.30;;;;;;1522758;77;1124;-66
2021/09/20 04:22:05;;;;;;;;;;;23.60;50.30;;;;;;1523514;77;735;-67
2021/09/20 04:24:07;;;;;;;;;;;23.70;50.40;;;;;;1539965;77;636;-67
2021/09/20 04:26:09;;;;;;;;;;;23.60;50.30;;;;;;1528208;77;721;-66
2021/09/20 04:28:11;;;;;;;;;;;23.70;50.40;;;;;;1537487;77;1947;-67
2021/09/20 04:30:13;;;;;;;;;;;23.70;50.40;;;;;;1532231;77;1138;-65
2021/09/20 04:32:15;;;;;;;;;;;23.70;50.40;;;;;;1537274;77;822;-70
2021/09/20 04:34:17;;;;;;;;;;;23.70;50.40;;;;;;1541465;77;752;-67
2021/09/20 04:36:19;;;;;;;;;;;23.60;50.30;;;;;;1536604;77;836;-66
2021/09/20 04:38:21;;;;;;;;;;;23.70;50.40;;;;;;1531566;77;798;-67
2021/09/20 04:40:23;;;;;;;;;;;23.60;50.40;;;;;;1529245;77;1153;-67
2021/09/20 04:42:25;;;;;;;;;;;23.70;50.50;;;;;;1534119;75;795;-68
2021/09/20 04:44:27;;;;;;;;;;;23.70;50.50;;;;;;1529116;76;749;-68
2021/09/20 04:46:28;;;;;;;;;;;23.60;50.30;;;;;;1530238;77;742;-69
2021/09/20 04:48:30;;;;;;;;;;;23.70;50.40;;;;;;1533518;77;1948;-68
2021/09/20 04:50:32;;;;;;;;;;;23.70;50.30;;;;;;1531443;77;1147;-70
2021/09/20 04:52:34;;;;;;;;;;;23.70;50.40;;;;;;1536162;77;728;-68
2021/09/20 04:54:36;;;;;;;;;;;23.70;50.40;;;;;;1540770;77;811;-66
2021/09/20 04:56:38;;;;;;;;;;;23.70;50.40;;;;;;1528359;77;741;-67
2021/09/20 04:58:40;;;;;;;;;;;23.70;50.30;;;;;;1526208;75;698;-68
2021/09/20 05:00:42;;;;;;;;;;;23.70;50.50;;;;;;1531897;77;1167;-69
2021/09/20 05:02:44;;;;;;;;;;;23.80;50.50;;;;;;1535485;77;858;-69
2021/09/20 05:04:46;;;;;;;;;;;23.70;50.40;;;;;;1527100;77;721;-64
2021/09/20 05:06:48;;;;;;;;;;;23.70;50.40;;;;;;1526394;77;742;-69
2021/09/20 05:08:49;;;;;;;;;;;23.80;50.20;;;;;;1536768;77;1948;-70
2021/09/20 05:10:51;;;;;;;;;;;23.80;50.20;;;;;;1523650;77;1123;-68
2021/09/20 05:12:53;;;;;;;;;;;23.80;50.00;;;;;;1526872;77;789;-67
2021/09/20 05:14:55;;;;;;;;;;;23.70;50.00;;;;;;1526720;77;741;-71
2021/09/20 05:16:58;;;;;;;;;;;23.90;50.10;;;;;;1523521;77;779;-69
2021/09/20 05:19:00;;;;;;;;;;;23.80;50.00;;;;;;1526573;77;726;-70
2021/09/20 05:21:02;;;;;;;;;;;23.70;50.00;;;;;;1523406;77;1040;-68
2021/09/20 05:23:04;;;;;;;;;;;23.80;50.10;;;;;;1535491;77;780;-70
2021/09/20 05:25:06;;;;;;;;;;;23.80;50.00;;;;;;1524009;77;936;-68
2021/09/20 05:27:08;;;;;;;;;;;23.90;50.00;;;;;;1534476;77;701;-68
2021/09/20 05:29:10;;;;;;;;;;;23.80;49.80;;;;;;1546173;75;1927;-66
2021/09/20 05:31:12;;;;;;;;;;;23.80;49.80;;;;;;1547339;77;809;-67
2021/09/20 05:33:15;;;;;;;;;;;23.80;49.70;;;;;;1546905;77;662;-67
2021/09/20 05:35:17;;;;;;;;;;;23.70;49.70;;;;;;1539286;77;765;-68
2021/09/20 05:37:19;;;;;;;;;;;23.70;49.70;;;;;;1546140;77;829;-72
2021/09/20 05:39:21;;;;;;;;;;;23.70;49.70;;;;;;1532084;77;1135;-66
2021/09/20 05:41:23;;;;;;;;;;;23.80;49.70;;;;;;1547259;77;767;-67
2021/09/20 05:43:25;;;;;;;;;;;23.70;49.50;;;;;;1546714;77;797;-68
2021/09/20 05:45:27;;;;;;;;;;;23.70;49.60;;;;;;1541862;77;747;-67
2021/09/20 05:47:29;;;;;;;;;;;23.80;49.60;;;;;;1538127;75;718;-68
2021/09/20 05:49:30;;;;;;;;;;;23.70;49.60;;;;;;1527498;75;1932;-65
2021/09/20 05:51:33;;;;;;;;;;;23.70;49.50;;;;;;1537989;77;761;-69
2021/09/20 05:53:35;;;;;;;;;;;23.70;49.60;;;;;;1545484;77;755;-69
2021/09/20 05:55:37;;;;;;;;;;;23.60;49.40;;;;;;1538926;77;794;-69
2021/09/20 05:57:39;;;;;;;;;;;23.60;49.40;;;;;;1551386;75;789;-67
2021/09/20 05:59:41;;;;;;;;;;;23.60;49.40;;;;;;1546942;77;1209;-67
2021/09/20 06:01:42;;;;;;;;;;;23.60;49.40;;;;;;1546949;77;764;-66
2021/09/20 06:03:44;;;;;;;;;;;23.60;49.30;;;;;;1542587;77;806;-68
2021/09/20 06:05:46;;;;;;;;;;;23.60;49.40;;;;;;1533207;77;670;-66
2021/09/20 06:07:48;;;;;;;;;;;23.60;49.30;;;;;;1547115;77;659;-67
2021/09/20 06:09:50;;;;;;;;;;;23.60;49.30;;;;;;1547199;77;1951;-64
2021/09/20 06:11:52;;;;;;;;;;;23.50;49.30;;;;;;1546658;77;706;-69
2021/09/20 06:13:55;;;;;;;;;;;23.60;49.20;;;;;;1547764;77;659;-67
2021/09/20 06:15:57;;;;;;;;;;;23.50;49.20;;;;;;1545417;77;795;-66
2021/09/20 06:17:59;;;;;;;;;;;23.50;49.20;;;;;;1544017;75;766;-69
2021/09/20 06:20:01;;;;;;;;;;;23.50;49.20;;;;;;1547998;75;1135;-68
2021/09/20 06:22:03;;;;;;;;;;;23.50;49.20;;;;;;1545356;75;817;-69
2021/09/20 06:24:05;;;;;;;;;;;23.60;49.20;;;;;;1539669;75;786;-67
2021/09/20 06:26:07;;;;;;;;;;;23.50;49.20;;;;;;1547238;75;777;-70
2021/09/20 06:28:09;;;;;;;;;;;23.60;49.20;;;;;;1537667;75;794;-70
2021/09/20 06:30:11;;;;;;;;;;;23.60;49.20;;;;;;1546796;75;1919;-72
2021/09/20 06:32:13;;;;;;;;;;;23.60;49.20;;;;;;1544499;75;751;-70
2021/09/20 06:34:15;;;;;;;;;;;23.70;49.20;;;;;;1541372;75;735;-68
2021/09/20 06:36:17;;;;;;;;;;;23.60;49.20;;;;;;1551459;75;778;-70
2021/09/20 06:38:19;;;;;;;;;;;23.70;49.30;;;;;;1547993;75;786;-68
2021/09/20 06:40:21;;;;;;;;;;;23.60;49.20;;;;;;1551114;73;2099;-71
2021/09/20 06:42:23;;;;;;;;;;;23.70;49.40;;;;;;1542099;75;718;-67
2021/09/20 06:44:25;;;;;;;;;;;23.60;49.20;;;;;;1548048;75;731;-68
2021/09/20 06:46:26;;;;;;;;;;;23.60;49.30;;;;;;1560762;75;745;-71
2021/09/20 06:48:28;;;;;;;;;;;23.60;49.20;;;;;;1561451;75;695;-67
2021/09/20 06:50:30;;;;;;;;;;;23.60;49.30;;;;;;1567143;74;1946;-69
2021/09/20 06:52:32;;;;;;;;;;;23.60;49.30;;;;;;1565408;75;683;-67
2021/09/20 06:54:34;;;;;;;;;;;23.60;49.20;;;;;;1568408;75;708;-69
2021/09/20 06:56:36;;;;;;;;;;;23.50;49.30;;;;;;1569848;75;769;-69
2021/09/20 06:58:38;;;;;;;;;;;23.50;49.20;;;;;;1564503;75;824;-68
2021/09/20 07:00:40;;;;;;;;;;;23.50;49.30;;;;;;1566386;74;1157;-68
2021/09/20 07:02:42;;;;;;;;;;;23.50;49.20;;;;;;1568489;75;702;-68
2021/09/20 07:04:43;;;;;;;;;;;23.50;49.20;;;;;;1557154;75;703;-68
2021/09/20 07:06:45;;;;;;;;;;;23.50;49.20;;;;;;1573080;74;754;-67
2021/09/20 07:08:47;;;;;;;;;;;23.50;49.20;;;;;;1566168;75;1971;-68
2021/09/20 07:10:49;;;;;;;;;;;23.60;49.20;;;;;;1555989;75;1241;-69
2021/09/20 07:12:51;;;;;;;;;;;23.60;49.20;;;;;;1556225;75;713;-67
2021/09/20 07:14:53;;;;;;;;;;;23.60;49.20;;;;;;1573740;75;774;-69
2021/09/20 07:16:55;;;;;;;;;;;23.50;49.10;;;;;;1570658;75;786;-69
2021/09/20 07:18:57;;;;;;;;;;;23.50;49.10;;;;;;1570975;75;802;-68
2021/09/20 07:20:59;;;;;;;;;;;23.50;49.20;;;;;;1572534;75;1085;-66
2021/09/20 07:23:01;;;;;;;;;;;23.50;49.10;;;;;;1560934;75;754;-71
2021/09/20 07:25:03;;;;;;;;;;;23.50;49.10;;;;;;1560917;75;723;-68
2021/09/20 07:27:05;;;;;;;;;;;23.50;49.10;;;;;;1564029;75;752;-69
2021/09/20 07:29:07;;;;;;;;;;;23.50;49.20;;;;;;1558415;75;1938;-68
2021/09/20 07:31:08;;;;;;;;;;;23.50;49.10;;;;;;1559666;75;1145;-68
2021/09/20 07:33:10;;;;;;;;;;;23.50;49.10;;;;;;1559543;75;734;-69
2021/09/20 07:35:15;;;;;;;;;;;23.50;49.10;;;;;;1562933;75;752;-68
2021/09/20 07:37:16;;;;;;;;;;;23.50;49.10;;;;;;1558882;75;1093;-66
2021/09/20 07:39:18;;;;;;;;;;;23.50;49.20;;;;;;1563968;75;766;-70
2021/09/20 07:41:20;;;;;;;;;;;23.50;49.20;;;;;;1563656;75;1108;-68
2021/09/20 07:43:23;;;;;;;;;;;23.50;49.10;;;;;;1563480;75;654;-68
2021/09/20 07:45:25;;;;;;;;;;;23.50;49.20;;;;;;1563772;75;718;-68
2021/09/20 07:47:27;;;;;;;;;;;23.40;49.00;;;;;;1558529;75;763;-69
2021/09/20 07:49:29;;;;;;;;;;;23.50;49.20;;;;;;1559557;75;1951;-68
2021/09/20 07:51:31;;;;;;;;;;;23.40;49.00;;;;;;1560333;75;1157;-68
2021/09/20 07:53:33;;;;;;;;;;;23.40;49.00;;;;;;1560229;75;824;-69
2021/09/20 07:55:35;;;;;;;;;;;23.40;49.00;;;;;;1567625;74;766;-67
2021/09/20 07:57:37;;;;;;;;;;;23.50;49.20;;;;;;1554311;75;757;-67
2021/09/20 07:59:39;;;;;;;;;;;23.40;49.00;;;;;;1567813;75;1120;-64
2021/09/20 08:01:41;;;;;;;;;;;23.50;49.20;;;;;;1559108;75;762;-68
2021/09/20 08:03:42;;;;;;;;;;;23.40;49.00;;;;;;1561081;75;691;-68
2021/09/20 08:05:45;;;;;;;;;;;23.50;49.10;;;;;;1566978;75;743;-70
2021/09/20 08:07:47;;;;;;;;;;;23.50;49.20;;;;;;1558449;75;797;-68
2021/09/20 08:09:49;;;;;;;;;;;23.40;49.00;;;;;;1564345;74;1933;-68
2021/09/20 08:11:51;;;;;;;;;;;23.40;49.10;;;;;;1557441;75;694;-69
2021/09/20 08:13:53;;;;;;;;;;;23.50;49.20;;;;;;1562633;75;716;-70
2021/09/20 08:15:55;;;;;;;;;;;23.50;49.20;;;;;;1559557;75;755;-69
2021/09/20 08:17:56;;;;;;;;;;;23.40;49.10;;;;;;1559400;75;734;-68
2021/09/20 08:19:58;;;;;;;;;;;23.40;49.10;;;;;;1563410;75;1129;-68
2021/09/20 08:22:00;;;;;;;;;;;23.40;49.10;;;;;;1557595;75;686;-68
2021/09/20 08:24:02;;;;;;;;;;;23.40;49.10;;;;;;1560477;75;712;-68
2021/09/20 08:26:05;;;;;;;;;;;23.40;49.00;;;;;;1562725;75;674;-68
2021/09/20 08:28:07;;;;;;;;;;;23.50;49.20;;;;;;1563780;75;729;-68
2021/09/20 08:30:09;;;;;;;;;;;23.50;49.20;;;;;;1565130;74;1942;-68
2021/09/20 08:32:11;;;;;;;;;;;23.50;49.20;;;;;;1559198;75;715;-70
2021/09/20 08:34:13;;;;;;;;;;;23.50;49.20;;;;;;1564232;75;775;-68
2021/09/20 08:36:15;;;;;;;;;;;23.50;49.20;;;;;;1559822;75;735;-71
2021/09/20 08:38:17;;;;;;;;;;;23.50;49.20;;;;;;1563545;75;748;-69
2021/09/20 08:40:19;;;;;;;;;;;23.50;49.10;;;;;;1560344;75;1166;-69
2021/09/20 08:42:21;;;;;;;;;;;23.50;49.20;;;;;;1556638;75;825;-70
2021/09/20 08:44:23;;;;;;;;;;;23.50;49.20;;;;;;1560958;75;733;-70
2021/09/20 08:46:25;;;;;;;;;;;23.50;49.20;;;;;;1564021;75;699;-71
2021/09/20 08:48:27;;;;;;;;;;;23.50;49.20;;;;;;1564720;75;780;-68
2021/09/20 08:50:31;;;;;;;;;;;23.50;49.20;;;;;;1560368;75;1907;-69
2021/09/20 08:52:33;;;;;;;;;;;23.50;49.10;;;;;;1560563;75;1728;-70
2021/09/20 08:54:34;;;;;;;;;;;23.50;49.20;;;;;;1556705;75;746;-68
2021/09/20 08:56:36;;;;;;;;;;;23.50;49.10;;;;;;1564150;75;755;-69
2021/09/20 08:58:38;;;;;;;;;;;23.50;49.10;;;;;;1564314;75;792;-70
2021/09/20 09:00:40;;;;;;;;;;;23.50;49.10;;;;;;1560965;75;1265;-71
2021/09/20 09:02:42;;;;;;;;;;;23.50;49.20;;;;;;1564270;75;719;-67
2021/09/20 09:04:44;;;;;;;;;;;23.50;49.20;;;;;;1559911;75;656;-70
2021/09/20 09:06:53;;;;;;;;;;;23.50;49.20;;;;;;1560238;75;810;-71
2021/09/20 09:08:55;;;;;;;;;;;23.50;49.10;;;;;;1561202;75;802;-69
2021/09/20 09:11:01;;;;;;;;;;;23.50;49.10;;;;;;1559312;75;1943;-73
2021/09/20 09:13:04;;;;;;;;;;;23.50;49.10;;;;;;1556967;75;746;-69
2021/09/20 09:15:07;;;;;;;;;;;23.50;49.10;;;;;;1561128;75;592;-69
2021/09/20 09:17:13;;;;;;;;;;;23.60;49.10;;;;;;1562936;75;735;-70
2021/09/20 09:19:15;;;;;;;;;;;23.50;49.10;;;;;;1560434;75;791;-73
2021/09/20 09:21:20;;;;;;;;;;;23.60;49.10;;;;;;1556148;75;1113;-70
2021/09/20 09:23:22;;;;;;;;;;;23.60;49.10;;;;;;1558456;75;713;-70
2021/09/20 09:25:25;;;;;;;;;;;23.60;49.10;;;;;;1569970;75;771;-70
2021/09/20 09:27:28;;;;;;;;;;;23.60;49.10;;;;;;1576370;75;934;-71
2021/09/20 09:29:33;;;;;;;;;;;23.60;49.10;;;;;;1565269;74;785;-71
2021/09/20 09:31:36;;;;;;;;;;;23.70;49.30;;;;;;1562295;75;1948;-70
2021/09/20 09:33:39;;;;;;;;;;;23.60;49.20;;;;;;1562006;75;1056;-69
2021/09/20 09:35:42;;;;;;;;;;;23.60;49.10;;;;;;1562370;75;740;-69
2021/09/20 09:37:45;;;;;;;;;;;23.70;49.20;;;;;;1562718;75;730;-70
2021/09/20 09:39:47;;;;;;;;;;;23.70;49.10;;;;;;1562818;75;1160;-71
2021/09/20 09:41:49;;;;;;;;;;;23.70;49.10;;;;;;1564038;75;777;-69
2021/09/20 09:43:51;;;;;;;;;;;23.70;49.10;;;;;;1562301;75;687;-70
2021/09/20 09:45:53;;;;;;;;;;;23.80;49.10;;;;;;1584480;73;1236;-70
2021/09/20 09:48:08;;;;;;;;;;;23.80;49.00;;;;;;1562470;74;862;-70
2021/09/20 09:50:18;;;;;;;;;;;23.80;48.90;;;;;;1567173;75;1945;-71
2021/09/20 09:52:20;;;;;;;;;;;23.80;48.90;;;;;;1569786;74;692;-68
2021/09/20 09:54:26;;;;;;;;;;;23.80;48.80;;;;;;1562846;75;710;-70
2021/09/20 09:56:28;;;;;;;;;;;23.80;48.90;;;;;;1562382;75;765;-69
2021/09/20 09:58:29;;;;;;;;;;;23.80;48.80;;;;;;1559717;75;691;-69
2021/09/20 10:00:31;;;;;;;;;;;23.80;48.80;;;;;;1561802;75;1168;-71
2021/09/20 10:02:34;;;;;;;;;;;23.80;48.80;;;;;;1582369;73;1149;-69
2021/09/20 10:04:36;;;;;;;;;;;23.80;48.70;;;;;;1559938;75;683;-70
2021/09/20 10:06:42;;;;;;;;;;;23.90;48.70;;;;;;1581087;73;1183;-70
2021/09/20 10:08:49;;;;;;;;;;;23.90;48.60;;;;;;1560252;75;737;-69
2021/09/20 10:10:51;;;;;;;;;;;23.80;48.60;;;;;;1559836;75;1935;-70
2021/09/20 10:12:53;;;;;;;;;;;23.90;48.60;;;;;;1565927;75;694;-70
2021/09/20 10:14:56;;;;;;;;;;;23.70;48.50;;;;;;1569855;75;778;-69
2021/09/20 10:16:59;;;;;;;;;;;23.80;48.50;;;;;;1568938;75;693;-69
2021/09/20 10:19:01;;;;;;;;;;;23.80;48.50;;;;;;1569332;75;831;-69
2021/09/20 10:21:03;;;;;;;;;;;23.80;48.40;;;;;;1562357;74;1153;-70
2021/09/20 10:23:05;;;;;;;;;;;23.80;48.50;;;;;;1563930;75;694;-70
2021/09/20 10:25:08;;;;;;;;;;;23.80;48.40;;;;;;1564074;75;675;-71
2021/09/20 10:27:11;;;;;;;;;;;23.80;48.40;;;;;;1561131;75;731;-70
2021/09/20 10:29:14;;;;;;;;;;;23.80;48.40;;;;;;1561171;75;678;-69
2021/09/20 10:31:16;;;;;;;;;;;23.90;48.40;;;;;;1559511;75;1946;-71
2021/09/20 10:33:18;;;;;;;;;;;23.80;48.30;;;;;;1563397;75;672;-70
2021/09/20 10:35:23;;;;;;;;;;;23.80;48.30;;;;;;1532114;76;1220;-68
2021/09/20 10:37:25;;;;;;;;;;;23.80;48.30;;;;;;1567324;75;750;-65
2021/09/20 10:39:45;;;;;;;;;;;23.80;48.30;;;;;;1561553;75;797;-69
2021/09/20 10:41:47;;;;;;;;;;;23.70;48.30;;;;;;1563588;75;707;-73
2021/09/20 10:43:50;;;;;;;;;;;23.70;48.20;;;;;;1559194;75;768;-73
2021/09/20 10:45:53;;;;;;;;;;;23.80;48.20;;;;;;1562757;73;1087;-75
2021/09/20 10:47:55;;;;;;;;;;;23.80;48.10;;;;;;1560969;75;803;-73
2021/09/20 10:49:57;;;;;;;;;;;23.70;48.20;;;;;;1563927;75;1161;-66
2021/09/20 10:52:02;;;;;;;;;;;23.80;48.20;;;;;;1563777;75;1942;-68
2021/09/20 10:54:12;;;;;;;;;;;23.80;48.20;;;;;;1564153;75;728;-64
2021/09/20 10:56:16;;;;;;;;;;;23.70;48.20;;;;;;1564444;75;683;-67
2021/09/20 10:58:19;;;;;;;;;;;23.90;48.40;;;;;;1548482;75;1543;-68
2021/09/20 11:00:24;;;;;;;;;;;23.80;48.30;;;;;;1556946;75;1197;-68
2021/09/20 11:02:29;;;;;;;;;;;23.70;48.30;;;;;;1557123;75;690;-68
2021/09/20 11:04:30;;;;;;;;;;;23.80;48.30;;;;;;1560531;75;1530;-68
2021/09/20 11:06:36;;;;;;;;;;;23.80;48.30;;;;;;1564890;75;661;-67
2021/09/20 11:08:38;;;;;;;;;;;23.80;48.30;;;;;;1566058;75;767;-68
2021/09/20 11:10:40;;;;;;;;;;;23.80;48.30;;;;;;1560838;75;1958;-71
2021/09/20 11:13:00;;;;;;;;;;;23.80;48.30;;;;;;1564918;75;773;-67
2021/09/20 11:15:04;;;;;;;;;;;23.80;48.20;;;;;;1560032;75;700;-67
2021/09/20 11:17:19;;;;;;;;;;;23.80;48.20;;;;;;1561058;75;777;-67
2021/09/20 11:19:32;;;;;;;;;;;23.80;48.30;;;;;;1557112;75;735;-67
2021/09/20 11:21:34;;;;;;;;;;;23.70;48.20;;;;;;1564262;75;1119;-68
2021/09/20 11:23:38;;;;;;;;;;;23.60;48.10;;;;;;1559198;75;678;-68
2021/09/20 11:25:40;;;;;;;;;;;23.80;48.20;;;;;;1560022;75;1576;-68
2021/09/20 11:27:43;;;;;;;;;;;23.80;48.20;;;;;;1560184;75;702;-66
2021/09/20 11:29:47;;;;;;;;;;;23.70;48.20;;;;;;1562662;75;1490;-68
2021/09/20 11:31:49;;;;;;;;;;;23.70;48.20;;;;;;1560654;75;1952;-69
2021/09/20 11:33:51;;;;;;;;;;;23.70;48.10;;;;;;1563818;75;735;-67
2021/09/20 11:35:54;;;;;;;;;;;23.80;48.20;;;;;;1565328;75;709;-67
2021/09/20 11:37:56;;;;;;;;;;;23.70;48.20;;;;;;1562272;75;776;-67
2021/09/20 11:40:06;;;;;;;;;;;23.70;48.10;;;;;;1562224;75;1147;-67
2021/09/20 11:42:08;;;;;;;;;;;23.70;48.10;;;;;;1565385;75;768;-68
2021/09/20 11:44:11;;;;;;;;;;;23.80;48.10;;;;;;1565373;75;796;-69
2021/09/20 11:46:14;;;;;;;;;;;23.70;48.10;;;;;;1586744;73;739;-65
2021/09/20 11:48:18;;;;;;;;;;;23.70;48.00;;;;;;1565256;75;1752;-67
2021/09/20 11:50:21;;;;;;;;;;;23.80;48.00;;;;;;1566776;75;1865;-69
2021/09/20 11:52:30;;;;;;;;;;;23.70;47.90;;;;;;1569191;75;1990;-67
2021/09/20 11:54:34;;;;;;;;;;;23.70;48.00;;;;;;1565467;75;742;-68
2021/09/20 11:56:35;;;;;;;;;;;23.70;47.90;;;;;;1562206;75;787;-68
2021/09/20 11:58:37;;;;;;;;;;;23.70;48.00;;;;;;1567843;75;784;-69
2021/09/20 12:00:40;;;;;;;;;;;23.70;48.00;;;;;;1556720;75;1196;-68
2021/09/20 12:02:43;;;;;;;;;;;23.70;47.90;;;;;;1567860;75;683;-67
2021/09/20 12:04:48;;;;;;;;;;;23.70;47.90;;;;;;1567174;75;719;-69
2021/09/20 12:06:50;;;;;;;;;;;23.60;47.80;;;;;;1570233;75;711;-68
2021/09/20 12:08:52;;;;;;;;;;;23.70;47.90;;;;;;1545767;76;705;-68
2021/09/20 12:10:54;;;;;;;;;;;23.60;47.70;;;;;;1581861;74;1929;-69